Time;durP1;ratioP1;P1;durP2;ratioP2;P2;SDS_P1;SDS_P2;PMS_P1;PMS_P2;Temp;Humidity;BMP_temperature;BMP_pressure;BME280_temperature;BME280_humidity;BME280_pressure;Samples;Min_cycle;Max_cycle;Signal;HPM_P1;HPM_P2
2024/02/21 00:00:11;;;;;;;13.82;2.80;;;;;;;;;;4993733;28;20050;-79
2024/02/21 00:02:37;;;;;;;11.32;2.70;;;;;;;;;;4994548;28;20057;-77
2024/02/21 00:05:04;;;;;;;16.75;2.28;;;;;;;;;;4994105;28;20046;-78
2024/02/21 00:07:31;;;;;;;15.38;2.20;;;;;;;;;;4994024;28;20066;-79
2024/02/21 00:09:58;;;;;;;13.15;2.13;;;;;;;;;;4994204;28;20385;-78
2024/02/21 00:12:25;;;;;;;16.48;2.10;;;;;;;;;;4993972;28;20208;-78
2024/02/21 00:14:51;;;;;;;15.07;2.00;;;;;;;;;;4994242;28;20049;-79
2024/02/21 00:17:18;;;;;;;15.20;2.20;;;;;;;;;;4993775;28;20137;-78
2024/02/21 00:19:45;;;;;;;19.30;3.13;;;;;;;;;;4994051;28;20046;-80
2024/02/21 00:22:12;;;;;;;12.15;2.38;;;;;;;;;;4993549;28;20097;-79
2024/02/21 00:24:38;;;;;;;12.98;2.30;;;;;;;;;;4994092;28;20050;-79
2024/02/21 00:27:05;;;;;;;13.98;3.08;;;;;;;;;;4993640;28;20514;-79
2024/02/21 00:29:32;;;;;;;13.35;3.45;;;;;;;;;;4993752;28;20500;-79
2024/02/21 00:31:58;;;;;;;15.35;3.13;;;;;;;;;;4994019;28;20564;-78
2024/02/21 00:34:25;;;;;;;14.77;3.28;;;;;;;;;;4993318;28;20112;-79
2024/02/21 00:36:52;;;;;;;14.57;2.65;;;;;;;;;;4993842;28;20070;-79
2024/02/21 00:39:19;;;;;;;12.88;2.30;;;;;;;;;;4976013;28;20053;-79
2024/02/21 00:41:45;;;;;;;13.95;2.08;;;;;;;;;;4993645;28;20046;-78
2024/02/21 00:44:12;;;;;;;13.80;2.38;;;;;;;;;;4993227;28;20123;-79
2024/02/21 00:46:39;;;;;;;14.32;2.45;;;;;;;;;;4993667;28;20047;-79
2024/02/21 00:49:06;;;;;;;11.85;1.85;;;;;;;;;;4993128;28;20109;-79
2024/02/21 00:51:33;;;;;;;9.15;2.28;;;;;;;;;;4993618;28;20101;-77
2024/02/21 00:54:01;;;;;;;16.77;2.95;;;;;;;;;;4993640;28;20481;-79
2024/02/21 00:56:28;;;;;;;12.70;1.88;;;;;;;;;;4992848;28;20054;-79
2024/02/21 00:58:54;;;;;;;13.98;2.10;;;;;;;;;;4993481;28;20046;-78
2024/02/21 01:01:25;;;;;;;13.18;2.90;;;;;;;;;;4992847;28;20062;-78
2024/02/21 01:03:53;;;;;;;18.33;2.78;;;;;;;;;;4992937;28;20105;-79
2024/02/21 01:06:21;;;;;;;13.50;2.75;;;;;;;;;;4992835;28;20134;-78
2024/02/21 01:08:47;;;;;;;10.30;2.10;;;;;;;;;;4993487;28;20054;-78
2024/02/21 01:11:15;;;;;;;16.40;2.80;;;;;;;;;;4992807;28;20544;-78
2024/02/21 01:13:42;;;;;;;12.10;2.67;;;;;;;;;;4993373;28;20042;-78
2024/02/21 01:16:09;;;;;;;15.07;2.17;;;;;;;;;;4992823;28;20289;-78
2024/02/21 01:18:39;;;;;;;15.32;2.42;;;;;;;;;;4993221;28;20122;-81
2024/02/21 01:21:07;;;;;;;13.88;2.20;;;;;;;;;;4992925;28;20477;-78
2024/02/21 01:23:35;;;;;;;18.38;1.90;;;;;;;;;;4993294;28;20054;-78
2024/02/21 01:26:03;;;;;;;22.85;2.88;;;;;;;;;;4993184;28;20046;-79
2024/02/21 01:28:30;;;;;;;15.60;3.05;;;;;;;;;;4993094;28;20046;-79
2024/02/21 01:30:57;;;;;;;12.00;1.92;;;;;;;;;;4993228;28;20548;-79
2024/02/21 01:33:24;;;;;;;16.17;2.88;;;;;;;;;;4992805;28;20047;-79
2024/02/21 01:35:51;;;;;;;12.88;2.47;;;;;;;;;;4993415;28;20386;-79
2024/02/21 01:38:17;;;;;;;18.60;3.40;;;;;;;;;;4992659;28;20049;-79
2024/02/21 01:40:44;;;;;;;18.02;2.55;;;;;;;;;;4992089;28;20049;-79
2024/02/21 01:43:21;;;;;;;13.95;2.33;;;;;;;;;;4992590;28;20046;-79
2024/02/21 01:45:56;;;;;;;18.17;2.45;;;;;;;;;;4993053;28;20050;-79
2024/02/21 01:48:23;;;;;;;17.05;2.20;;;;;;;;;;4991413;28;20047;-79
2024/02/21 01:50:51;;;;;;;11.40;2.42;;;;;;;;;;4993115;28;20088;-79
2024/02/21 01:53:25;;;;;;;13.60;2.17;;;;;;;;;;4992740;28;20042;-78
2024/02/21 01:55:53;;;;;;;12.55;2.30;;;;;;;;;;4993018;28;20401;-78
2024/02/21 01:58:20;;;;;;;10.85;2.72;;;;;;;;;;4992444;28;20044;-78
2024/02/21 02:00:48;;;;;;;16.40;2.53;;;;;;;;;;4993019;28;20042;-79
2024/02/21 02:03:17;;;;;;;18.10;2.92;;;;;;;;;;4992555;28;20038;-79
2024/02/21 02:05:48;;;;;;;17.70;2.55;;;;;;;;;;4992882;28;20043;-79
2024/02/21 02:08:16;;;;;;;18.67;2.70;;;;;;;;;;4992410;28;20437;-78
2024/02/21 02:10:44;;;;;;;15.48;2.83;;;;;;;;;;4992790;28;20078;-78
2024/02/21 02:13:11;;;;;;;13.60;1.90;;;;;;;;;;4992540;28;20042;-79
2024/02/21 02:15:49;;;;;;;18.33;2.15;;;;;;;;;;4996361;28;20105;-78
2024/02/21 02:18:17;;;;;;;10.52;2.00;;;;;;;;;;4995839;28;20482;-78
2024/02/21 02:20:45;;;;;;;15.15;2.55;;;;;;;;;;4996348;28;20035;-79
2024/02/21 02:23:29;;;;;;;21.27;2.20;;;;;;;;;;4995869;28;20042;-78
2024/02/21 02:25:56;;;;;;;19.23;2.78;;;;;;;;;;4996130;28;20040;-78
2024/02/21 02:28:23;;;;;;;16.50;2.17;;;;;;;;;;4995802;28;20042;-78
2024/02/21 02:30:50;;;;;;;16.67;2.30;;;;;;;;;;4996019;28;20497;-79
2024/02/21 02:33:17;;;;;;;17.75;2.85;;;;;;;;;;4995586;28;20050;-78
2024/02/21 02:35:45;;;;;;;19.30;2.22;;;;;;;;;;4996127;28;20061;-78
2024/02/21 02:38:13;;;;;;;16.50;2.28;;;;;;;;;;4978357;28;20050;-78
2024/02/21 02:40:41;;;;;;;9.10;1.80;;;;;;;;;;4995873;28;20042;-80
2024/02/21 02:43:08;;;;;;;10.82;2.15;;;;;;;;;;4995634;28;20121;-78
2024/02/21 02:45:35;;;;;;;11.63;1.80;;;;;;;;;;4995723;28;20057;-79
2024/02/21 02:48:02;;;;;;;13.18;1.90;;;;;;;;;;4995865;28;20062;-79
2024/02/21 02:50:29;;;;;;;14.73;2.42;;;;;;;;;;4995414;28;20092;-79
2024/02/21 02:52:56;;;;;;;10.32;1.88;;;;;;;;;;4995754;28;20041;-78
2024/02/21 02:55:23;;;;;;;13.63;1.90;;;;;;;;;;4995361;28;20046;-79
2024/02/21 02:57:50;;;;;;;12.10;1.48;;;;;;;;;;4995657;28;20057;-78
2024/02/21 03:00:17;;;;;;;9.70;1.92;;;;;;;;;;4995054;28;20038;-79
2024/02/21 03:02:46;;;;;;;16.15;1.75;;;;;;;;;;4995694;28;20051;-80
2024/02/21 03:05:18;;;;;;;9.75;1.92;;;;;;;;;;4994877;28;20039;-79
2024/02/21 03:07:45;;;;;;;13.38;1.88;;;;;;;;;;4995589;28;20105;-78
2024/02/21 03:10:13;;;;;;;16.58;2.25;;;;;;;;;;4994467;28;20050;-78
2024/02/21 03:12:40;;;;;;;17.33;2.20;;;;;;;;;;4995452;28;20141;-79
2024/02/21 03:15:07;;;;;;;13.52;2.65;;;;;;;;;;4994865;28;20054;-79
2024/02/21 03:17:34;;;;;;;22.80;2.90;;;;;;;;;;4995230;28;20043;-79
2024/02/21 03:20:10;;;;;;;18.83;3.17;;;;;;;;;;4995397;28;20034;-79
2024/02/21 03:22:40;;;;;;;20.07;2.80;;;;;;;;;;4995033;28;20034;-78
2024/02/21 03:25:08;;;;;;;18.93;3.17;;;;;;;;;;4993719;28;20429;-79
2024/02/21 03:27:35;;;;;;;16.63;3.60;;;;;;;;;;4993974;28;20054;-79
2024/02/21 03:30:02;;;;;;;15.45;3.38;;;;;;;;;;4995247;28;20038;-79
2024/02/21 03:32:29;;;;;;;16.42;2.80;;;;;;;;;;4994449;28;20050;-79
2024/02/21 03:34:56;;;;;;;26.45;2.92;;;;;;;;;;4995020;28;20043;-79
2024/02/21 03:37:23;;;;;;;20.30;2.97;;;;;;;;;;4994621;28;20045;-78
2024/02/21 03:39:50;;;;;;;20.67;2.97;;;;;;;;;;4977506;28;20058;-79
2024/02/21 03:42:17;;;;;;;16.85;3.15;;;;;;;;;;4994188;28;20046;-79
2024/02/21 03:44:43;;;;;;;17.35;2.15;;;;;;;;;;4994887;28;20058;-78
2024/02/21 03:47:11;;;;;;;20.60;2.00;;;;;;;;;;4994900;28;20133;-78
2024/02/21 03:49:38;;;;;;;17.20;2.93;;;;;;;;;;4978157;28;20065;-79
2024/02/21 03:52:05;;;;;;;20.92;2.63;;;;;;;;;;4994068;28;20042;-78
2024/02/21 03:54:32;;;;;;;14.43;1.70;;;;;;;;;;4992978;28;20513;-79
2024/02/21 03:56:59;;;;;;;20.17;2.65;;;;;;;;;;4992691;28;20452;-79
2024/02/21 03:59:25;;;;;;;15.48;2.05;;;;;;;;;;4993086;28;20053;-79
2024/02/21 04:01:53;;;;;;;12.60;2.53;;;;;;;;;;4994423;28;20122;-79
2024/02/21 04:04:20;;;;;;;13.57;1.95;;;;;;;;;;4993913;28;20038;-79
2024/02/21 04:06:50;;;;;;;15.70;2.42;;;;;;;;;;4994611;28;20058;-79
2024/02/21 04:09:17;;;;;;;13.70;2.10;;;;;;;;;;4993800;28;20047;-79
2024/02/21 04:11:44;;;;;;;13.00;2.00;;;;;;;;;;4994383;28;20054;-79
2024/02/21 04:14:11;;;;;;;20.67;2.53;;;;;;;;;;4993838;28;20500;-79
2024/02/21 04:16:39;;;;;;;16.98;2.53;;;;;;;;;;4994508;28;20042;-79
2024/02/21 04:19:06;;;;;;;11.38;2.08;;;;;;;;;;4993912;28;20386;-78
2024/02/21 04:21:35;;;;;;;18.60;2.60;;;;;;;;;;4994164;28;20069;-79
2024/02/21 04:24:05;;;;;;;;;;;;;;;;;;4994597;28;20046;-78
2024/02/21 04:26:33;;;;;;;17.95;2.15;;;;;;;;;;4993814;28;19928;-79
2024/02/21 04:29:00;;;;;;;15.90;2.58;;;;;;;;;;4993927;28;20042;-79
2024/02/21 04:31:27;;;;;;;23.10;2.38;;;;;;;;;;4993359;28;20079;-79
2024/02/21 04:33:54;;;;;;;17.00;3.10;;;;;;;;;;4993943;28;20049;-79
2024/02/21 04:36:21;;;;;;;18.80;2.70;;;;;;;;;;4992171;28;20042;-79
2024/02/21 04:38:47;;;;;;;18.55;2.10;;;;;;;;;;4994148;28;20050;-79
2024/02/21 04:41:14;;;;;;;22.70;3.05;;;;;;;;;;4993390;28;20054;-78
2024/02/21 04:43:41;;;;;;;18.63;2.28;;;;;;;;;;4993707;28;20054;-78
2024/02/21 04:46:08;;;;;;;18.02;2.70;;;;;;;;;;4992241;28;20042;-77
2024/02/21 04:48:34;;;;;;;16.52;3.22;;;;;;;;;;4993728;28;20046;-79
2024/02/21 04:51:01;;;;;;;21.23;2.58;;;;;;;;;;4993504;28;20579;-79
2024/02/21 04:53:28;;;;;;;17.75;2.70;;;;;;;;;;4993303;28;20047;-79
2024/02/21 04:55:54;;;;;;;19.55;3.30;;;;;;;;;;4993745;28;20042;-78
2024/02/21 04:58:21;;;;;;;17.92;2.58;;;;;;;;;;4993034;28;20092;-79
2024/02/21 05:00:48;;;;;;;21.77;2.85;;;;;;;;;;4993583;28;20124;-79
2024/02/21 05:03:15;;;;;;;21.23;2.85;;;;;;;;;;4993071;28;20038;-80
2024/02/21 05:05:42;;;;;;;18.58;2.70;;;;;;;;;;4993456;28;20050;-79
2024/02/21 05:08:10;;;;;;;21.60;2.65;;;;;;;;;;4993371;28;20046;-79
2024/02/21 05:10:37;;;;;;;21.85;3.25;;;;;;;;;;4993560;28;20458;-79
2024/02/21 05:13:04;;;;;;;27.10;3.10;;;;;;;;;;4993667;28;20051;-80
2024/02/21 05:15:31;;;;;;;26.27;3.45;;;;;;;;;;4992938;28;20041;-80
2024/02/21 05:17:58;;;;;;;15.52;3.10;;;;;;;;;;4993578;28;20039;-80
2024/02/21 05:20:25;;;;;;;22.63;4.00;;;;;;;;;;4992821;28;20489;-79
2024/02/21 05:22:53;;;;;;;26.58;3.95;;;;;;;;;;4993074;28;20571;-79
2024/02/21 05:25:20;;;;;;;28.80;4.80;;;;;;;;;;4992851;28;20540;-79
2024/02/21 05:27:48;;;;;;;25.20;4.47;;;;;;;;;;4993460;28;20058;-78
2024/02/21 05:30:15;;;;;;;33.70;4.45;;;;;;;;;;4992727;28;20048;-79
2024/02/21 05:32:41;;;;;;;29.42;4.35;;;;;;;;;;4993386;28;20039;-79
2024/02/21 05:35:08;;;;;;;34.33;4.35;;;;;;;;;;4992739;28;20069;-79
2024/02/21 05:37:35;;;;;;;22.48;4.38;;;;;;;;;;4993358;28;20066;-79
2024/02/21 05:40:02;;;;;;;33.92;4.03;;;;;;;;;;4993127;28;20062;-78
2024/02/21 05:42:29;;;;;;;36.90;4.70;;;;;;;;;;4992603;28;20053;-80
2024/02/21 05:44:55;;;;;;;29.77;4.75;;;;;;;;;;4992085;28;20358;-79
2024/02/21 05:47:22;;;;;;;39.40;5.07;;;;;;;;;;4992627;28;20046;-78
2024/02/21 05:49:49;;;;;;;38.92;4.82;;;;;;;;;;4995667;28;20054;-79
2024/02/21 05:52:16;;;;;;;31.23;4.80;;;;;;;;;;4996461;28;20101;-79
2024/02/21 05:54:42;;;;;;;40.38;5.68;;;;;;;;;;4996811;28;20104;-79
2024/02/21 05:57:09;;;;;;;30.70;4.68;;;;;;;;;;4996199;28;20046;-80
2024/02/21 05:59:40;;;;;;;30.58;4.72;;;;;;;;;;4995747;28;20042;-79
2024/02/21 06:02:06;;;;;;;25.10;4.05;;;;;;;;;;4995998;28;20039;-79
2024/02/21 06:04:33;;;;;;;23.73;4.45;;;;;;;;;;4996646;28;20054;-79
2024/02/21 06:07:01;;;;;;;27.98;4.30;;;;;;;;;;4996681;28;20065;-82
2024/02/21 06:09:28;;;;;;;32.33;5.03;;;;;;;;;;4978611;28;20077;-79
2024/02/21 06:11:55;;;;;;;21.38;3.78;;;;;;;;;;4996577;28;20034;-79
2024/02/21 06:14:22;;;;;;;27.15;3.97;;;;;;;;;;4994824;28;20397;-79
2024/02/21 06:16:49;;;;;;;19.48;3.88;;;;;;;;;;4995366;28;20133;-78
2024/02/21 06:19:15;;;;;;;24.58;3.95;;;;;;;;;;4995995;28;20042;-79
2024/02/21 06:21:42;;;;;;;20.38;3.78;;;;;;;;;;4996137;28;20438;-79
2024/02/21 06:24:09;;;;;;;24.10;3.45;;;;;;;;;;4995951;28;20470;-79
2024/02/21 06:26:36;;;;;;;20.45;4.35;;;;;;;;;;4996382;28;20050;-78
2024/02/21 06:29:03;;;;;;;21.98;3.70;;;;;;;;;;4979259;28;20541;-79
2024/02/21 06:31:31;;;;;;;25.48;4.53;;;;;;;;;;4995917;28;20390;-79
2024/02/21 06:33:58;;;;;;;13.85;2.90;;;;;;;;;;4996281;28;20042;-80
2024/02/21 06:36:26;;;;;;;22.92;3.78;;;;;;;;;;4995779;28;20093;-79
2024/02/21 06:38:52;;;;;;;22.58;4.75;;;;;;;;;;4996186;28;20053;-79
2024/02/21 06:41:19;;;;;;;18.88;3.78;;;;;;;;;;4995832;28;20039;-78
2024/02/21 06:43:47;;;;;;;22.00;3.88;;;;;;;;;;4996077;28;20046;-80
2024/02/21 06:46:26;;;;;;;17.45;2.92;;;;;;;;;;4995616;28;20085;-79
2024/02/21 06:48:53;;;;;;;27.08;4.05;;;;;;;;;;4996018;28;20050;-79
2024/02/21 06:51:20;;;;;;;15.80;3.30;;;;;;;;;;4995360;28;20042;-79
2024/02/21 06:53:47;;;;;;;21.73;3.33;;;;;;;;;;4995693;28;20042;-79
2024/02/21 06:56:14;;;;;;;24.13;3.33;;;;;;;;;;4995391;28;20046;-79
2024/02/21 06:58:40;;;;;;;17.60;3.53;;;;;;;;;;4995864;28;20050;-79
2024/02/21 07:01:08;;;;;;;26.38;4.30;;;;;;;;;;4993229;28;20410;-80
2024/02/21 07:03:35;;;;;;;24.63;3.58;;;;;;;;;;5014161;28;20048;-79
2024/02/21 07:06:01;;;;;;;15.00;3.85;;;;;;;;;;5013757;28;20084;-80
2024/02/21 07:08:28;;;;;;;19.20;3.20;;;;;;;;;;5014254;28;20066;-79
2024/02/21 07:10:55;;;;;;;25.25;10.10;;;;;;;;;;5013899;28;20129;-79
2024/02/21 07:13:22;;;;;;;27.65;10.07;;;;;;;;;;5014194;28;20092;-80
2024/02/21 07:15:49;;;;;;;43.65;22.10;;;;;;;;;;4998895;28;20053;-80
2024/02/21 07:18:16;;;;;;;53.88;22.80;;;;;;;;;;4993234;28;20058;-79
2024/02/21 07:20:43;;;;;;;71.45;34.08;;;;;;;;;;4994403;28;20461;-79
2024/02/21 07:23:10;;;;;;;35.83;15.82;;;;;;;;;;4993964;28;20390;-80
2024/02/21 07:25:37;;;;;;;22.77;6.13;;;;;;;;;;4993968;28;20043;-80
2024/02/21 07:28:04;;;;;;;21.45;4.50;;;;;;;;;;4993522;28;20069;-80
2024/02/21 07:30:30;;;;;;;24.08;4.75;;;;;;;;;;4994434;28;20046;-79
2024/02/21 07:32:57;;;;;;;22.85;7.25;;;;;;;;;;4994946;28;20052;-81
2024/02/21 07:35:25;;;;;;;25.60;13.25;;;;;;;;;;4994446;28;20935;-78
2024/02/21 07:37:51;;;;;;;25.02;7.82;;;;;;;;;;4994968;28;20489;-79
2024/02/21 07:40:18;;;;;;;24.73;4.13;;;;;;;;;;4994365;28;20555;-79
2024/02/21 07:42:45;;;;;;;20.48;6.00;;;;;;;;;;4993979;28;20042;-79
2024/02/21 07:45:18;;;;;;;18.17;4.30;;;;;;;;;;4994510;28;20053;-80
2024/02/21 07:47:45;;;;;;;15.98;4.47;;;;;;;;;;4994841;28;20057;-79
2024/02/21 07:50:12;;;;;;;18.40;4.63;;;;;;;;;;4993277;28;20050;-80
2024/02/21 07:52:39;;;;;;;19.10;4.15;;;;;;;;;;4993679;28;20049;-80
2024/02/21 07:55:06;;;;;;;20.00;3.63;;;;;;;;;;4976429;28;20039;-79
2024/02/21 07:57:33;;;;;;;25.27;4.60;;;;;;;;;;4993994;28;20078;-80
2024/02/21 07:59:59;;;;;;;26.50;4.05;;;;;;;;;;4994536;28;20046;-80
2024/02/21 08:02:26;;;;;;;17.33;3.88;;;;;;;;;;4993605;28;20121;-80
2024/02/21 08:04:53;;;;;;;18.58;5.45;;;;;;;;;;4994439;28;20440;-80
2024/02/21 08:07:20;;;;;;;25.98;4.30;;;;;;;;;;4976669;28;20497;-80
2024/02/21 08:09:47;;;;;;;21.33;5.30;;;;;;;;;;4994206;28;20054;-78
2024/02/21 08:12:14;;;;;;;18.20;4.38;;;;;;;;;;4992825;28;20034;-79
2024/02/21 08:14:40;;;;;;;15.13;4.22;;;;;;;;;;4993748;28;20052;-79
2024/02/21 08:17:07;;;;;;;21.17;4.43;;;;;;;;;;4993321;28;20096;-79
2024/02/21 08:19:34;;;;;;;17.02;4.40;;;;;;;;;;4990951;28;20093;-79
2024/02/21 08:22:01;;;;;;;35.70;18.55;;;;;;;;;;4993559;28;20039;-80
2024/02/21 08:24:27;;;;;;;19.42;5.32;;;;;;;;;;4993088;28;20101;-79
2024/02/21 08:26:54;;;;;;;20.08;4.53;;;;;;;;;;4992519;28;20056;-79
2024/02/21 08:29:21;;;;;;;23.15;5.80;;;;;;;;;;4992789;28;20038;-79
2024/02/21 08:31:48;;;;;;;21.73;6.68;;;;;;;;;;4993627;28;20046;-80
2024/02/21 08:34:15;;;;;;;17.17;5.93;;;;;;;;;;4992348;28;20126;-79
2024/02/21 08:36:43;;;;;;;22.20;5.90;;;;;;;;;;4994214;28;20443;-79
2024/02/21 08:39:09;;;;;;;21.38;9.15;;;;;;;;;;4992832;28;20038;-80
2024/02/21 08:41:36;;;;;;;40.85;18.38;;;;;;;;;;4991817;28;20141;-79
2024/02/21 08:44:27;;;;;;;24.42;8.30;;;;;;;;;;4991252;28;20062;-79
2024/02/21 08:46:55;;;;;;;22.27;6.40;;;;;;;;;;4991715;28;20081;-78
2024/02/21 08:49:22;;;;;;;18.92;6.65;;;;;;;;;;4991031;28;20141;-79
2024/02/21 08:51:50;;;;;;;22.63;5.93;;;;;;;;;;4991472;28;20042;-80
2024/02/21 08:54:16;;;;;;;16.38;4.30;;;;;;;;;;4991506;28;20046;-81
2024/02/21 08:56:43;;;;;;;18.40;3.90;;;;;;;;;;4993693;28;20046;-80
2024/02/21 08:59:10;;;;;;;16.00;4.95;;;;;;;;;;4993024;28;20493;-79
2024/02/21 09:01:37;;;;;;;18.73;4.75;;;;;;;;;;4993608;28;20073;-80
2024/02/21 09:04:05;;;;;;;13.63;3.50;;;;;;;;;;4992852;28;20042;-79
2024/02/21 09:06:33;;;;;;;17.90;4.35;;;;;;;;;;4993684;28;20137;-79
2024/02/21 09:09:00;;;;;;;25.63;5.40;;;;;;;;;;4993476;28;20077;-78
2024/02/21 09:11:27;;;;;;;18.00;4.35;;;;;;;;;;4993098;28;20145;-80
2024/02/21 09:13:55;;;;;;;14.43;4.30;;;;;;;;;;4993347;28;20054;-80
2024/02/21 09:16:22;;;;;;;22.25;5.07;;;;;;;;;;4992853;28;20035;-80
2024/02/21 09:18:52;;;;;;;19.15;6.03;;;;;;;;;;4993849;28;20054;-79
2024/02/21 09:21:18;;;;;;;21.38;5.80;;;;;;;;;;4993290;28;20524;-80
2024/02/21 09:23:45;;;;;;;17.92;5.63;;;;;;;;;;4994648;28;20050;-78
2024/02/21 09:26:15;;;;;;;23.20;5.53;;;;;;;;;;4996963;28;20137;-78
2024/02/21 09:28:46;;;;;;;26.58;6.13;;;;;;;;;;4997537;28;20101;-78
2024/02/21 09:31:13;;;;;;;24.48;6.10;;;;;;;;;;4997017;28;20044;-79
2024/02/21 09:33:41;;;;;;;25.63;5.85;;;;;;;;;;4997251;28;20035;-79
2024/02/21 09:36:08;;;;;;;20.20;6.70;;;;;;;;;;4996830;28;20039;-79
2024/02/21 09:38:35;;;;;;;28.95;6.40;;;;;;;;;;4997206;28;20042;-79
2024/02/21 09:41:15;;;;;;;29.10;6.10;;;;;;;;;;4997155;28;20046;-79
2024/02/21 09:43:45;;;;;;;24.67;5.63;;;;;;;;;;4996852;28;20126;-79
2024/02/21 09:46:17;;;;;;;27.10;7.85;;;;;;;;;;4996788;28;20222;-79
2024/02/21 09:49:08;;;;;;;26.88;7.20;;;;;;;;;;4997056;28;20046;-78
2024/02/21 09:51:36;;;;;;;32.25;6.50;;;;;;;;;;4996795;28;20054;-78
2024/02/21 09:54:03;;;;;;;28.73;6.60;;;;;;;;;;4997345;28;20088;-79
2024/02/21 09:56:42;;;;;;;29.67;6.78;;;;;;;;;;4996643;28;20292;-78
2024/02/21 09:59:10;;;;;;;27.85;6.13;;;;;;;;;;4996228;28;20050;-79
2024/02/21 10:01:36;;;;;;;29.33;5.38;;;;;;;;;;4997075;28;20488;-79
2024/02/21 10:04:04;;;;;;;28.23;5.72;;;;;;;;;;4996621;28;20046;-78
2024/02/21 10:06:32;;;;;;;30.33;5.40;;;;;;;;;;4996609;28;20097;-80
2024/02/21 10:08:59;;;;;;;26.60;4.88;;;;;;;;;;4996698;28;20058;-79
2024/02/21 10:11:26;;;;;;;22.60;5.57;;;;;;;;;;4978936;28;20047;-80
2024/02/21 10:14:06;;;;;;;31.60;5.28;;;;;;;;;;4996649;28;20076;-80
2024/02/21 10:16:34;;;;;;;32.00;5.68;;;;;;;;;;4996316;28;20046;-80
2024/02/21 10:19:01;;;;;;;33.47;7.03;;;;;;;;;;4996357;28;20042;-79
2024/02/21 10:21:28;;;;;;;37.50;6.35;;;;;;;;;;4978567;28;20065;-79
2024/02/21 10:23:55;;;;;;;28.55;5.00;;;;;;;;;;4996534;28;20045;-79
2024/02/21 10:26:22;;;;;;;29.10;5.10;;;;;;;;;;4995846;28;20049;-79
2024/02/21 10:28:51;;;;;;;27.17;5.22;;;;;;;;;;4996358;28;20053;-79
2024/02/21 10:31:28;;;;;;;39.40;6.15;;;;;;;;;;4996029;28;20045;-79
2024/02/21 10:34:05;;;;;;;28.08;5.25;;;;;;;;;;4996254;28;20042;-78
2024/02/21 10:36:32;;;;;;;31.27;5.47;;;;;;;;;;4995985;28;20066;-79
2024/02/21 10:38:59;;;;;;;26.35;5.60;;;;;;;;;;4996217;28;20093;-79
2024/02/21 10:41:27;;;;;;;29.20;5.70;;;;;;;;;;4976139;28;20128;-81
2024/02/21 10:43:55;;;;;;;28.45;5.53;;;;;;;;;;4976660;28;20070;-78
2024/02/21 10:46:23;;;;;;;29.73;5.97;;;;;;;;;;4976111;28;20050;-79
2024/02/21 10:49:16;;;;;;;32.65;5.75;;;;;;;;;;4976626;28;20062;-79
2024/02/21 10:51:45;;;;;;;36.67;6.50;;;;;;;;;;4976172;28;20047;-79
2024/02/21 10:54:43;;;;;;;33.75;6.53;;;;;;;;;;4976017;28;20153;-79
2024/02/21 10:57:11;;;;;;;33.80;5.35;;;;;;;;;;4974949;28;20043;-80
2024/02/21 10:59:39;;;;;;;24.05;5.25;;;;;;;;;;4976337;28;20146;-79
2024/02/21 11:02:06;;;;;;;27.75;4.85;;;;;;;;;;4975973;28;20398;-79
2024/02/21 11:04:38;;;;;;;22.48;5.53;;;;;;;;;;4976232;28;20050;-78
2024/02/21 11:07:05;;;;;;;29.13;5.50;;;;;;;;;;4975921;28;20061;-80
2024/02/21 11:09:37;;;;;;;31.55;5.75;;;;;;;;;;4976043;28;20454;-79
2024/02/21 11:12:05;;;;;;;45.55;6.22;;;;;;;;;;4975747;28;20042;-78
2024/02/21 11:14:37;;;;;;;30.25;5.60;;;;;;;;;;4976003;28;20366;-79
2024/02/21 11:17:17;;;;;;;35.20;7.13;;;;;;;;;;4976091;28;20055;-80
2024/02/21 11:19:44;;;;;;;39.70;9.00;;;;;;;;;;4975948;28;20047;-80
2024/02/21 11:22:22;;;;;;;46.08;8.60;;;;;;;;;;4975547;28;20496;-80
2024/02/21 11:24:49;;;;;;;38.85;8.25;;;;;;;;;;4980522;28;20081;-80
2024/02/21 11:27:20;;;;;;;52.30;15.77;;;;;;;;;;4994876;28;20477;-80
2024/02/21 11:29:50;;;;;;;65.80;20.48;;;;;;;;;;4995389;28;20182;-79
2024/02/21 11:32:20;;;;;;;53.65;8.07;;;;;;;;;;4994920;28;20046;-80
2024/02/21 11:35:01;;;;;;;53.33;11.07;;;;;;;;;;4995137;28;20039;-80
2024/02/21 11:37:33;;;;;;;56.90;11.65;;;;;;;;;;4994729;28;20381;-80
2024/02/21 11:40:01;;;;;;;56.00;9.13;;;;;;;;;;4995204;28;20051;-80
2024/02/21 11:42:28;;;;;;;49.55;8.82;;;;;;;;;;4977364;28;20132;-80
2024/02/21 11:45:00;;;;;;;58.55;13.02;;;;;;;;;;4994877;28;20537;-80
2024/02/21 11:47:28;;;;;;;53.80;9.18;;;;;;;;;;4993681;28;20494;-80
2024/02/21 11:49:56;;;;;;;41.15;8.00;;;;;;;;;;4994941;28;20433;-80
2024/02/21 11:52:25;;;;;;;48.42;10.38;;;;;;;;;;4993955;28;20047;-80
2024/02/21 11:54:54;;;;;;;28.98;5.10;;;;;;;;;;4994742;28;20489;-80
2024/02/21 11:57:21;;;;;;;43.78;7.85;;;;;;;;;;4994304;28;20394;-78
2024/02/21 11:59:49;;;;;;;42.38;7.00;;;;;;;;;;4994580;28;20057;-79
2024/02/21 12:02:19;;;;;;;43.22;9.85;;;;;;;;;;4994112;28;20043;-78
2024/02/21 12:04:46;;;;;;;35.85;8.85;;;;;;;;;;4992863;28;20046;-79
2024/02/21 12:07:14;;;;;;;47.33;9.77;;;;;;;;;;4988914;28;20070;-80
2024/02/21 12:09:41;;;;;;;31.80;6.57;;;;;;;;;;4992634;28;20053;-80
2024/02/21 12:12:08;;;;;;;36.80;8.50;;;;;;;;;;4992596;28;20054;-80
2024/02/21 12:14:35;;;;;;;61.88;22.23;;;;;;;;;;4992887;28;20038;-79
2024/02/21 12:17:05;;;;;;;51.30;20.33;;;;;;;;;;4991406;28;20046;-80
2024/02/21 12:19:33;;;;;;;57.15;19.27;;;;;;;;;;4992689;28;20038;-80
2024/02/21 12:22:01;;;;;;;41.42;6.35;;;;;;;;;;4992671;28;20057;-81
2024/02/21 12:24:28;;;;;;;41.92;10.82;;;;;;;;;;4992099;28;20445;-80
2024/02/21 12:26:56;;;;;;;32.83;7.22;;;;;;;;;;4992692;28;20104;-79
2024/02/21 12:29:24;;;;;;;30.45;8.35;;;;;;;;;;4992349;28;20054;-80
2024/02/21 12:31:51;;;;;;;40.08;7.57;;;;;;;;;;4993225;28;20069;-79
2024/02/21 12:34:18;;;;;;;36.10;7.50;;;;;;;;;;4992659;28;20130;-82
2024/02/21 12:37:03;;;;;;;35.50;8.48;;;;;;;;;;4992559;28;20046;-81
2024/02/21 12:39:29;;;;;;;28.20;5.18;;;;;;;;;;4992999;28;20054;-80
2024/02/21 12:41:56;;;;;;;30.52;5.05;;;;;;;;;;4993465;28;20816;-80
2024/02/21 12:44:24;;;;;;;38.25;5.78;;;;;;;;;;4990277;28;20069;-78
2024/02/21 12:46:53;;;;;;;39.60;6.07;;;;;;;;;;4993261;28;20141;-79
2024/02/21 12:49:21;;;;;;;31.50;6.25;;;;;;;;;;4999741;28;20448;-79
2024/02/21 12:51:48;;;;;;;45.88;6.55;;;;;;;;;;4993142;28;20048;-80
2024/02/21 12:54:15;;;;;;;51.67;15.45;;;;;;;;;;4992527;28;20042;-80
2024/02/21 12:56:41;;;;;;;65.45;19.98;;;;;;;;;;4973434;28;20054;-79
2024/02/21 12:59:11;;;;;;;32.88;5.28;;;;;;;;;;4992601;28;20046;-80
2024/02/21 13:01:38;;;;;;;36.90;5.30;;;;;;;;;;4991355;28;20421;-80
2024/02/21 13:04:05;;;;;;;36.10;4.80;;;;;;;;;;4992676;28;20038;-80
2024/02/21 13:06:32;;;;;;;36.30;5.95;;;;;;;;;;4992863;28;20504;-80
2024/02/21 13:09:03;;;;;;;43.35;6.28;;;;;;;;;;4992682;28;20453;-80
2024/02/21 13:11:30;;;;;;;49.00;5.25;;;;;;;;;;4998715;28;20046;-80
2024/02/21 13:13:58;;;;;;;37.83;5.38;;;;;;;;;;4994729;28;20042;-81
2024/02/21 13:16:26;;;;;;;28.95;3.88;;;;;;;;;;4992447;28;20050;-81
2024/02/21 13:18:53;;;;;;;44.88;5.35;;;;;;;;;;4999936;28;20046;-80
2024/02/21 13:21:20;;;;;;;34.17;4.13;;;;;;;;;;4992910;28;20050;-80
2024/02/21 13:23:47;;;;;;;35.47;4.20;;;;;;;;;;4993267;28;20053;-79
2024/02/21 13:26:14;;;;;;;46.42;5.45;;;;;;;;;;4992620;28;20046;-81
2024/02/21 13:28:41;;;;;;;31.45;4.25;;;;;;;;;;4993354;28;20069;-81
2024/02/21 13:31:08;;;;;;;24.60;3.53;;;;;;;;;;4992974;28;20046;-80
2024/02/21 13:33:36;;;;;;;30.30;3.78;;;;;;;;;;4993024;28;20042;-80
2024/02/21 13:36:03;;;;;;;29.42;4.47;;;;;;;;;;4993423;28;20049;-80
2024/02/21 13:38:30;;;;;;;23.25;4.03;;;;;;;;;;4993037;28;20061;-80
2024/02/21 13:40:57;;;;;;;34.20;4.10;;;;;;;;;;4993046;28;20042;-80
2024/02/21 13:43:23;;;;;;;26.23;4.65;;;;;;;;;;4992679;28;20051;-80
2024/02/21 13:46:02;;;;;;;31.48;4.03;;;;;;;;;;4993135;28;20125;-80
2024/02/21 13:48:30;;;;;;;27.40;4.07;;;;;;;;;;4992753;28;20043;-81
2024/02/21 13:50:57;;;;;;;25.42;3.50;;;;;;;;;;4991971;28;20042;-81
2024/02/21 13:53:23;;;;;;;26.85;3.97;;;;;;;;;;4992718;28;20051;-80
2024/02/21 13:55:50;;;;;;;31.88;3.97;;;;;;;;;;4993132;28;20121;-80
2024/02/21 13:58:17;;;;;;;27.92;3.95;;;;;;;;;;4992830;28;20058;-80
2024/02/21 14:00:44;;;;;;;25.00;3.42;;;;;;;;;;4993115;28;20068;-79
2024/02/21 14:03:11;;;;;;;27.88;3.10;;;;;;;;;;4992371;28;20054;-79
2024/02/21 14:05:39;;;;;;;23.13;3.42;;;;;;;;;;4993019;28;20114;-80
2024/02/21 14:08:09;;;;;;;19.90;3.20;;;;;;;;;;4992537;28;20138;-80
2024/02/21 14:10:37;;;;;;;22.52;3.03;;;;;;;;;;4994985;28;20058;-79
2024/02/21 14:13:04;;;;;;;19.90;2.67;;;;;;;;;;4996486;28;20050;-80
2024/02/21 14:15:31;;;;;;;18.10;3.05;;;;;;;;;;4996072;28;20309;-81
2024/02/21 14:17:58;;;;;;;22.20;3.03;;;;;;;;;;4996716;28;20046;-81
2024/02/21 14:20:24;;;;;;;19.27;2.47;;;;;;;;;;4995135;28;20478;-81
2024/02/21 14:22:51;;;;;;;23.15;3.20;;;;;;;;;;4996533;28;20043;-81
2024/02/21 14:25:18;;;;;;;30.13;3.10;;;;;;;;;;4978320;28;20042;-81
2024/02/21 14:27:45;;;;;;;19.08;3.03;;;;;;;;;;4995864;28;20062;-81
2024/02/21 14:30:12;;;;;;;23.90;2.65;;;;;;;;;;4978645;28;20034;-80
2024/02/21 14:32:43;;;;;;;21.35;3.10;;;;;;;;;;4996416;28;20050;-81